createdAt,value
2023-03-23T15:57:56.962Z,1.58
2023-03-23T16:00:25.873Z,1.67
2023-03-23T16:03:00.218Z,1.67
2023-03-23T16:05:27.320Z,1.35
2023-03-23T16:07:53.897Z,1.98
2023-03-23T16:10:23.184Z,1.60
2023-03-23T16:12:49.563Z,1.35
2023-03-23T16:15:16.465Z,1.45
2023-03-23T16:17:43.446Z,1.73
2023-03-23T16:20:19.235Z,1.92
2023-03-23T16:22:46.608Z,1.27
2023-03-23T16:25:14.451Z,1.73
2023-03-23T16:27:41.754Z,1.48
2023-03-23T16:30:28.477Z,1.60
2023-03-23T16:32:57.055Z,1.60
2023-03-23T16:35:24.207Z,1.90
2023-03-23T16:38:08.256Z,1.85
2023-03-23T16:40:35.412Z,2.90
2023-03-23T16:43:01.825Z,1.83
2023-03-23T16:45:35.311Z,1.58
2023-03-23T16:48:01.770Z,1.92
2023-03-23T16:50:29.748Z,1.75
2023-03-23T16:52:56.701Z,2.28
2023-03-23T16:55:23.127Z,3.55
2023-03-23T16:57:49.496Z,1.95
2023-03-23T17:00:20.737Z,2.20
2023-03-23T17:02:49.041Z,1.63
2023-03-23T17:05:15.834Z,2.25
2023-03-23T17:07:42.221Z,1.88
2023-03-23T17:10:10.224Z,2.10
2023-03-23T17:12:36.622Z,2.10
2023-03-23T17:15:03.257Z,2.88
2023-03-23T17:17:29.752Z,2.70
2023-03-23T17:19:56.477Z,2.72
2023-03-23T17:22:22.960Z,2.90
2023-03-23T17:24:49.531Z,3.17
2023-03-23T17:27:17.719Z,3.00
2023-03-23T17:29:44.536Z,2.72
2023-03-23T17:32:10.908Z,3.13
2023-03-23T17:34:37.248Z,2.95
2023-03-23T17:37:04.034Z,2.90
2023-03-23T17:39:31.885Z,4.25
2023-03-23T17:42:09.139Z,3.33
2023-03-23T17:44:35.596Z,3.17
2023-03-23T17:47:02.126Z,3.38
2023-03-23T17:49:30.215Z,3.10
2023-03-23T17:51:57.921Z,3.13
2023-03-23T17:54:25.522Z,2.70
2023-03-23T17:56:53.205Z,2.35
2023-03-23T17:59:19.951Z,2.70
2023-03-23T18:01:48.681Z,3.20
2023-03-23T18:04:15.976Z,3.25
2023-03-23T18:06:42.759Z,2.50
2023-03-23T18:09:09.530Z,2.40
2023-03-23T18:11:39.305Z,3.33
2023-03-23T18:14:06.052Z,5.65
2023-03-23T18:16:32.507Z,3.20
2023-03-23T18:18:58.955Z,4.53
2023-03-23T18:21:27.003Z,3.85
2023-03-23T18:23:59.264Z,2.45
2023-03-23T18:26:27.040Z,2.17
2023-03-23T18:28:53.550Z,2.30
2023-03-23T18:31:20.329Z,2.17
2023-03-23T18:33:48.609Z,2.00
2023-03-23T18:36:16.985Z,2.08
2023-03-23T18:38:46.862Z,2.30
2023-03-23T18:41:15.041Z,1.90
2023-03-23T18:43:41.938Z,2.20
2023-03-23T18:46:08.386Z,2.15
2023-03-23T18:48:36.005Z,2.10
2023-03-23T18:51:02.495Z,2.10
2023-03-23T18:53:29.358Z,2.10
2023-03-23T18:56:07.724Z,1.90
2023-03-23T18:58:34.206Z,1.85
2023-03-23T19:01:10.329Z,1.95
2023-03-23T19:03:37.938Z,1.92
2023-03-23T19:06:05.880Z,2.10
2023-03-23T19:08:32.767Z,2.15
2023-03-23T19:11:01.674Z,1.83
2023-03-23T19:13:29.258Z,2.10
2023-03-23T19:15:55.634Z,2.15
2023-03-23T19:18:22.454Z,2.03
2023-03-23T19:21:12.666Z,2.10
2023-03-23T19:23:37.326Z,2.25
2023-03-23T19:26:04.013Z,1.95
2023-03-23T19:29:11.548Z,2.25
2023-03-23T19:31:18.826Z,2.13
2023-03-23T19:33:45.444Z,2.22
2023-03-23T19:36:13.913Z,2.17
2023-03-23T19:38:40.663Z,2.05
2023-03-23T19:41:07.709Z,2.58
2023-03-23T19:43:34.424Z,2.30
2023-03-23T19:46:00.859Z,2.40
2023-03-23T19:48:27.352Z,3.00
2023-03-23T19:50:55.733Z,2.40
2023-03-23T19:53:22.137Z,2.67
2023-03-23T19:55:48.652Z,2.83
2023-03-23T19:58:16.209Z,2.95
2023-03-23T20:00:44.257Z,2.53
2023-03-23T20:03:11.168Z,2.70
2023-03-23T20:05:37.559Z,2.70
2023-03-23T20:08:04.916Z,2.70
2023-03-23T20:10:34.394Z,2.88
2023-03-23T20:13:02.018Z,2.58
2023-03-23T20:15:30.365Z,2.65
2023-03-23T20:17:58.112Z,2.67
2023-03-23T20:20:25.274Z,2.78
2023-03-23T20:22:54.387Z,3.20
2023-03-23T20:25:22.390Z,3.03
2023-03-23T20:27:49.051Z,2.40
2023-03-23T20:30:15.523Z,2.60
2023-03-23T20:32:41.921Z,2.83
2023-03-23T20:35:10.568Z,2.90
2023-03-23T20:37:39.343Z,2.67
2023-03-23T20:40:07.969Z,2.78
2023-03-23T20:42:35.494Z,2.50
2023-03-23T20:45:02.457Z,2.70
2023-03-23T20:47:29.033Z,2.17
2023-03-23T20:49:55.847Z,2.30
2023-03-23T20:52:23.632Z,1.98
2023-03-23T20:54:50.730Z,1.98
2023-03-23T20:57:17.644Z,1.83
2023-03-23T20:59:43.986Z,2.05
2023-03-23T21:02:15.413Z,2.10
2023-03-23T21:04:42.499Z,2.33
2023-03-23T21:07:09.906Z,2.10
2023-03-23T21:09:36.432Z,2.25
2023-03-23T21:12:06.209Z,2.08
2023-03-23T21:14:33.564Z,1.90
2023-03-23T21:17:01.510Z,1.92
2023-03-23T21:19:29.806Z,1.90
2023-03-23T21:21:57.356Z,2.13
2023-03-23T21:24:29.488Z,2.30
2023-03-23T21:27:00.894Z,2.08
2023-03-23T21:29:27.827Z,2.33
2023-03-23T21:32:06.871Z,2.25
2023-03-23T21:34:34.947Z,2.30
2023-03-23T21:37:01.351Z,2.30
2023-03-23T21:39:28.135Z,2.53
2023-03-23T21:41:54.964Z,2.83
2023-03-23T21:44:21.935Z,2.38
2023-03-23T21:46:48.316Z,2.42
2023-03-23T21:49:14.888Z,2.53
2023-03-23T21:51:41.697Z,2.92
2023-03-23T21:54:09.859Z,2.28
2023-03-23T21:56:36.698Z,2.60
2023-03-23T21:59:04.586Z,2.70
2023-03-23T22:01:31.035Z,2.72
2023-03-23T22:03:58.161Z,2.95
2023-03-23T22:06:30.879Z,3.03
2023-03-23T22:08:57.366Z,3.60
2023-03-23T22:11:27.090Z,2.83
2023-03-23T22:13:55.514Z,3.05
2023-03-23T22:16:23.032Z,3.33
2023-03-23T22:18:51.251Z,3.70
2023-03-23T22:21:19.597Z,3.65
2023-03-23T22:23:46.287Z,3.55
2023-03-23T22:26:14.305Z,3.20
2023-03-23T22:28:41.427Z,3.90
2023-03-23T22:31:13.065Z,4.10
2023-03-23T22:33:39.966Z,3.92
2023-03-23T22:36:06.979Z,3.65
2023-03-23T22:38:34.791Z,3.67
2023-03-23T22:41:02.659Z,3.75
2023-03-23T22:43:29.135Z,3.75
2023-03-23T22:45:55.515Z,4.18
2023-03-23T22:48:25.114Z,3.90
2023-03-23T22:50:51.650Z,3.63
2023-03-23T22:53:18.457Z,4.07
2023-03-23T22:55:47.489Z,4.28
2023-03-23T22:58:14.482Z,3.97
2023-03-23T23:00:45.273Z,4.03
2023-03-23T23:03:14.171Z,4.53
2023-03-23T23:05:50.365Z,3.80
2023-03-23T23:08:18.040Z,4.15
2023-03-23T23:10:46.677Z,4.53
2023-03-23T23:13:13.454Z,3.85
2023-03-23T23:15:42.672Z,4.50
2023-03-23T23:18:09.273Z,4.72
2023-03-23T23:20:36.322Z,4.15
2023-03-23T23:23:03.219Z,4.68
2023-03-23T23:25:30.520Z,5.50
2023-03-23T23:27:58.333Z,5.10
2023-03-23T23:30:25.698Z,5.22
2023-03-23T23:32:52.470Z,4.75
2023-03-23T23:35:22.374Z,5.53
2023-03-23T23:37:49.534Z,4.85
2023-03-23T23:40:16.929Z,4.85
2023-03-23T23:42:44.610Z,5.05
2023-03-23T23:45:11.591Z,4.82
2023-03-23T23:47:38.587Z,5.78
2023-03-23T23:50:07.287Z,5.60
2023-03-23T23:52:34.522Z,5.10
2023-03-23T23:55:01.042Z,5.00
2023-03-23T23:57:27.531Z,5.25
2023-03-23T23:59:53.958Z,5.30
